createdAt,value
2023-04-26T00:00:00.296Z,94811.00
2023-04-26T00:01:00.299Z,94811.00
2023-04-26T00:02:00.307Z,94813.00
2023-04-26T00:03:00.646Z,94815.00
2023-04-26T00:04:00.589Z,94809.00
2023-04-26T00:05:00.585Z,94813.00
2023-04-26T00:06:00.376Z,94811.00
2023-04-26T00:07:00.407Z,94813.00
2023-04-26T00:08:00.410Z,94811.00
2023-04-26T00:09:00.607Z,94811.00
2023-04-26T00:10:00.477Z,94813.00
2023-04-26T00:11:00.511Z,94813.00
2023-04-26T00:12:00.495Z,94811.00
2023-04-26T00:13:00.501Z,94813.00
2023-04-26T00:14:00.583Z,94813.00
2023-04-26T00:15:00.583Z,94809.00
2023-04-26T00:16:00.569Z,94813.00
2023-04-26T00:17:00.573Z,94807.00
2023-04-26T00:18:00.667Z,94807.00
2023-04-26T00:19:00.653Z,94807.00
2023-04-26T00:20:00.636Z,94807.00
2023-04-26T00:21:00.760Z,94807.00
2023-04-26T00:22:00.701Z,94809.00
2023-04-26T00:23:00.749Z,94809.00
2023-04-26T00:24:00.773Z,94811.00
2023-04-26T00:25:00.775Z,94813.00
2023-04-26T00:26:00.775Z,94811.00
2023-04-26T00:27:00.819Z,94813.00
2023-04-26T00:28:00.821Z,94813.00
2023-04-26T00:29:00.881Z,94813.00
2023-04-26T00:30:00.895Z,94813.00
2023-04-26T00:31:00.928Z,94809.00
2023-04-26T00:32:01.042Z,94813.00
2023-04-26T00:33:01.068Z,94813.00
2023-04-26T00:34:01.008Z,94813.00
2023-04-26T00:35:01.025Z,94815.00
2023-04-26T00:36:01.058Z,94811.00
2023-04-26T00:37:01.064Z,94811.00
2023-04-26T00:38:01.081Z,94813.00
2023-04-26T00:39:01.115Z,94813.00
2023-04-26T00:40:01.169Z,94811.00
2023-04-26T00:41:01.150Z,94813.00
2023-04-26T00:42:01.180Z,94811.00
2023-04-26T00:43:01.205Z,94811.00
2023-04-26T00:44:01.225Z,94811.00
2023-04-26T00:45:01.235Z,94811.00
2023-04-26T00:46:01.333Z,94807.00
2023-04-26T00:47:01.284Z,94809.00
2023-04-26T00:48:01.347Z,94807.00
2023-04-26T00:49:01.317Z,94807.00
2023-04-26T00:50:01.362Z,94809.00
2023-04-26T00:51:01.369Z,94809.00
2023-04-26T00:52:01.413Z,94805.00
2023-04-26T00:53:01.413Z,94803.00
2023-04-26T00:54:01.498Z,94801.00
2023-04-26T00:55:01.461Z,94799.00
2023-04-26T00:56:01.562Z,94799.00
2023-04-26T00:57:01.511Z,94797.00
2023-04-26T00:58:01.562Z,94795.00
2023-04-26T00:59:01.626Z,94795.00
2023-04-26T01:00:01.615Z,94795.00
2023-04-26T01:01:01.694Z,94795.00
2023-04-26T01:02:01.719Z,94797.00
2023-04-26T01:03:01.920Z,94797.00
2023-04-26T01:04:01.924Z,94797.00
2023-04-26T01:05:01.771Z,94797.00
2023-04-26T01:06:01.748Z,94797.00
2023-04-26T01:07:01.796Z,94797.00
2023-04-26T01:08:01.791Z,94795.00
2023-04-26T01:09:01.851Z,94797.00
2023-04-26T01:10:01.886Z,94797.00
2023-04-26T01:11:01.929Z,94797.00
2023-04-26T01:12:01.942Z,94795.00
2023-04-26T01:13:01.976Z,94793.00
2023-04-26T01:14:01.989Z,94791.00
2023-04-26T01:15:02.040Z,94791.00
2023-04-26T01:16:02.048Z,94791.00
2023-04-26T01:17:02.102Z,94791.00
2023-04-26T01:18:02.141Z,94793.00
2023-04-26T01:19:02.139Z,94793.00
2023-04-26T01:20:02.161Z,94791.00
2023-04-26T01:21:03.499Z,94789.00
2023-04-26T01:22:02.251Z,94787.00
2023-04-26T01:23:02.258Z,94787.00
2023-04-26T01:24:02.326Z,94785.00
2023-04-26T01:25:02.341Z,94787.00
2023-04-26T01:26:02.364Z,94787.00
2023-04-26T01:27:02.383Z,94789.00
2023-04-26T01:28:02.405Z,94787.00
2023-04-26T01:29:02.449Z,94787.00
2023-04-26T01:30:02.502Z,94789.00
2023-04-26T01:31:02.497Z,94791.00
2023-04-26T01:32:02.539Z,94793.00
2023-04-26T01:33:02.593Z,94793.00
2023-04-26T01:34:02.596Z,94791.00
2023-04-26T01:35:02.628Z,94791.00
2023-04-26T01:36:02.659Z,94789.00
2023-04-26T01:37:02.657Z,94791.00
2023-04-26T01:38:02.696Z,94789.00
2023-04-26T01:39:02.735Z,94795.00
2023-04-26T01:40:02.793Z,94795.00
2023-04-26T01:41:02.826Z,94793.00
2023-04-26T01:42:02.867Z,94795.00
2023-04-26T01:43:02.858Z,94795.00
2023-04-26T01:44:02.922Z,94795.00
2023-04-26T01:45:02.957Z,94799.00
2023-04-26T01:46:02.986Z,94797.00
2023-04-26T01:47:03.044Z,94799.00
2023-04-26T01:48:03.161Z,94801.00
2023-04-26T01:49:03.652Z,94801.00
2023-04-26T01:50:03.112Z,94801.00
2023-04-26T01:51:03.148Z,94799.00
2023-04-26T01:52:03.156Z,94803.00
2023-04-26T01:53:03.185Z,94801.00
2023-04-26T01:54:03.227Z,94801.00
2023-04-26T01:55:03.301Z,94805.00
2023-04-26T01:56:03.316Z,94807.00
2023-04-26T01:57:03.323Z,94805.00
2023-04-26T01:58:03.348Z,94805.00
2023-04-26T01:59:03.350Z,94805.00
2023-04-26T02:00:03.391Z,94807.00
2023-04-26T02:01:03.444Z,94807.00
2023-04-26T02:02:03.554Z,94807.00
2023-04-26T02:03:03.610Z,94803.00
2023-04-26T02:04:03.513Z,94807.00
2023-04-26T02:05:03.599Z,94805.00
2023-04-26T02:06:03.675Z,94807.00
2023-04-26T02:07:03.658Z,94805.00
2023-04-26T02:08:03.674Z,94807.00
2023-04-26T02:09:03.697Z,94809.00
2023-04-26T02:10:03.714Z,94813.00
2023-04-26T02:11:03.774Z,94813.00
2023-04-26T02:12:03.786Z,94811.00
2023-04-26T02:13:03.849Z,94811.00
2023-04-26T02:14:03.904Z,94807.00
2023-04-26T02:15:03.899Z,94811.00
2023-04-26T02:16:03.945Z,94811.00
2023-04-26T02:17:03.950Z,94811.00
2023-04-26T02:18:04.064Z,94809.00
2023-04-26T02:19:04.039Z,94811.00
2023-04-26T02:20:04.057Z,94811.00
2023-04-26T02:21:04.044Z,94807.00
2023-04-26T02:22:04.105Z,94813.00
2023-04-26T02:23:04.148Z,94807.00
2023-04-26T02:24:04.180Z,94809.00
2023-04-26T02:25:04.231Z,94803.00
2023-04-26T02:26:04.286Z,94801.00
2023-04-26T02:27:04.302Z,94803.00
2023-04-26T02:28:04.326Z,94807.00
2023-04-26T02:29:04.642Z,94801.00
2023-04-26T02:30:04.399Z,94799.00
2023-04-26T02:31:04.498Z,94799.00
2023-04-26T02:32:04.508Z,94797.00
2023-04-26T02:33:04.564Z,94797.00
2023-04-26T02:34:04.596Z,94797.00
2023-04-26T02:35:04.629Z,94799.00
2023-04-26T02:36:04.671Z,94801.00
2023-04-26T02:37:04.830Z,94795.00
2023-04-26T02:38:04.745Z,94797.00
2023-04-26T02:39:05.204Z,94799.00
2023-04-26T02:40:04.788Z,94799.00
2023-04-26T02:41:04.839Z,94799.00
2023-04-26T02:42:04.857Z,94799.00
2023-04-26T02:43:05.637Z,94799.00
2023-04-26T02:44:04.947Z,94797.00
2023-04-26T02:45:05.087Z,94799.00
2023-04-26T02:46:05.004Z,94803.00
2023-04-26T02:47:05.114Z,94803.00
2023-04-26T02:48:05.160Z,94801.00
2023-04-26T02:49:05.157Z,94805.00
2023-04-26T02:50:05.157Z,94803.00
2023-04-26T02:51:05.214Z,94803.00
2023-04-26T02:52:05.222Z,94799.00
2023-04-26T02:53:05.267Z,94797.00
2023-04-26T02:54:07.045Z,94795.00
2023-04-26T02:55:05.369Z,94793.00
2023-04-26T02:56:05.429Z,94795.00
2023-04-26T02:57:05.461Z,94793.00
2023-04-26T02:58:05.479Z,94793.00
2023-04-26T02:59:05.529Z,94793.00
2023-04-26T03:00:05.626Z,94795.00
2023-04-26T03:01:05.652Z,94793.00
2023-04-26T03:02:05.682Z,94793.00
2023-04-26T03:03:05.841Z,94791.00
2023-04-26T03:04:06.249Z,94791.00
2023-04-26T03:05:05.784Z,94791.00
2023-04-26T03:06:05.826Z,94791.00
2023-04-26T03:07:05.875Z,94787.00
2023-04-26T03:08:05.885Z,94789.00
2023-04-26T03:09:05.949Z,94789.00
2023-04-26T03:10:06.030Z,94787.00
2023-04-26T03:11:06.019Z,94791.00
2023-04-26T03:12:06.060Z,94789.00
2023-04-26T03:13:06.172Z,94791.00
2023-04-26T03:14:06.153Z,94789.00
2023-04-26T03:15:06.199Z,94789.00
2023-04-26T03:16:06.290Z,94789.00
2023-04-26T03:17:06.275Z,94789.00
2023-04-26T03:18:06.364Z,94787.00
2023-04-26T03:19:06.368Z,94789.00
2023-04-26T03:20:06.372Z,94785.00
2023-04-26T03:21:06.427Z,94789.00
2023-04-26T03:22:06.473Z,94789.00
2023-04-26T03:23:06.528Z,94791.00
2023-04-26T03:24:06.650Z,94791.00
2023-04-26T03:25:06.617Z,94791.00
2023-04-26T03:26:06.659Z,94791.00
2023-04-26T03:27:06.705Z,94791.00
2023-04-26T03:28:06.743Z,94789.00
2023-04-26T03:29:06.817Z,94791.00
2023-04-26T03:30:06.817Z,94791.00
2023-04-26T03:31:06.858Z,94793.00
2023-04-26T03:32:07.129Z,94793.00
2023-04-26T03:33:07.058Z,94795.00
2023-04-26T03:34:07.016Z,94795.00
2023-04-26T03:35:07.066Z,94797.00
2023-04-26T03:36:07.112Z,94799.00
2023-04-26T03:37:07.156Z,94799.00
2023-04-26T03:38:07.238Z,94801.00
2023-04-26T03:39:07.694Z,94797.00
2023-04-26T03:40:07.340Z,94797.00
2023-04-26T03:41:07.379Z,94795.00
2023-04-26T03:42:07.396Z,94799.00
2023-04-26T03:43:07.483Z,94799.00
2023-04-26T03:44:07.501Z,94801.00
2023-04-26T03:45:07.698Z,94799.00
2023-04-26T03:46:07.684Z,94801.00
2023-04-26T03:47:07.693Z,94799.00
2023-04-26T03:48:07.770Z,94797.00
2023-04-26T03:49:07.699Z,94795.00
2023-04-26T03:50:07.776Z,94797.00
2023-04-26T03:51:07.839Z,94799.00
2023-04-26T03:52:07.862Z,94803.00
2023-04-26T03:53:07.926Z,94801.00
2023-04-26T03:54:07.960Z,94801.00
2023-04-26T03:55:08.179Z,94801.00
2023-04-26T03:56:08.065Z,94801.00
2023-04-26T03:57:08.109Z,94799.00
2023-04-26T03:58:08.362Z,94799.00
2023-04-26T03:59:08.181Z,94801.00
2023-04-26T04:00:08.221Z,94803.00
2023-04-26T04:01:08.287Z,94805.00
2023-04-26T04:02:08.369Z,94805.00
2023-04-26T04:03:08.592Z,94807.00
2023-04-26T04:04:08.743Z,94807.00
2023-04-26T04:05:08.618Z,94809.00
2023-04-26T04:06:08.548Z,94807.00
2023-04-26T04:07:08.496Z,94811.00
2023-04-26T04:08:08.568Z,94809.00
2023-04-26T04:09:08.616Z,94811.00
2023-04-26T04:10:08.668Z,94813.00
2023-04-26T04:11:08.723Z,94813.00
2023-04-26T04:12:08.775Z,94813.00
2023-04-26T04:13:08.800Z,94815.00
2023-04-26T04:14:08.833Z,94813.00
2023-04-26T04:15:08.879Z,94815.00
2023-04-26T04:16:08.918Z,94813.00
2023-04-26T04:17:09.057Z,94815.00
2023-04-26T04:18:09.037Z,94817.00
2023-04-26T04:19:09.083Z,94817.00
2023-04-26T04:20:09.262Z,94818.00
2023-04-26T04:21:09.117Z,94820.00
2023-04-26T04:22:09.190Z,94822.00
2023-04-26T04:23:09.184Z,94822.00
2023-04-26T04:24:09.264Z,94824.00
2023-04-26T04:25:09.442Z,94822.00
2023-04-26T04:26:09.305Z,94826.00
2023-04-26T04:27:09.384Z,94826.00
2023-04-26T04:28:09.444Z,94826.00
2023-04-26T04:29:09.511Z,94826.00
2023-04-26T04:30:09.682Z,94828.00
2023-04-26T04:31:09.638Z,94828.00
2023-04-26T04:32:09.570Z,94828.00
2023-04-26T04:33:09.740Z,94826.00
2023-04-26T04:34:09.668Z,94828.00
2023-04-26T04:35:09.718Z,94828.00
2023-04-26T04:36:09.748Z,94826.00
2023-04-26T04:37:09.825Z,94828.00
2023-04-26T04:38:09.875Z,94826.00
2023-04-26T04:39:09.929Z,94826.00
2023-04-26T04:40:11.560Z,94822.00
2023-04-26T04:41:09.997Z,94828.00
2023-04-26T04:42:10.019Z,94828.00
2023-04-26T04:43:10.109Z,94832.00
2023-04-26T04:44:10.164Z,94832.00
2023-04-26T04:45:10.691Z,94832.00
2023-04-26T04:46:12.551Z,94834.00
2023-04-26T04:47:10.437Z,94834.00
2023-04-26T04:48:10.502Z,94834.00
2023-04-26T04:49:10.526Z,94836.00
2023-04-26T04:50:10.607Z,94836.00
2023-04-26T04:51:10.642Z,94832.00
2023-04-26T04:52:10.680Z,94838.00
2023-04-26T04:53:10.723Z,94840.00
2023-04-26T04:54:10.801Z,94844.00
2023-04-26T04:55:10.844Z,94846.00
2023-04-26T04:56:10.931Z,94846.00
2023-04-26T04:57:10.978Z,94850.00
2023-04-26T04:58:11.033Z,94848.00
2023-04-26T04:59:11.036Z,94852.00
2023-04-26T05:00:11.059Z,94850.00
2023-04-26T05:01:11.113Z,94852.00
2023-04-26T05:02:11.301Z,94854.00
2023-04-26T05:03:11.478Z,94850.00
2023-04-26T05:04:11.486Z,94856.00
2023-04-26T05:05:11.413Z,94856.00
2023-04-26T05:06:11.420Z,94860.00
2023-04-26T05:07:11.460Z,94856.00
2023-04-26T05:08:11.525Z,94854.00
2023-04-26T05:09:11.618Z,94860.00
2023-04-26T05:10:11.730Z,94862.00
2023-04-26T05:11:11.669Z,94858.00
2023-04-26T05:12:11.698Z,94856.00
2023-04-26T05:13:11.742Z,94858.00
2023-04-26T05:14:11.829Z,94858.00
2023-04-26T05:15:11.893Z,94858.00
2023-04-26T05:16:11.939Z,94860.00
2023-04-26T05:17:11.982Z,94860.00
2023-04-26T05:18:12.085Z,94858.00
2023-04-26T05:19:12.100Z,94860.00
2023-04-26T05:20:12.150Z,94860.00
2023-04-26T05:21:12.225Z,94860.00
2023-04-26T05:22:12.239Z,94858.00
2023-04-26T05:23:12.276Z,94860.00
2023-04-26T05:24:12.276Z,94860.00
2023-04-26T05:25:12.386Z,94860.00
2023-04-26T05:26:12.406Z,94860.00
2023-04-26T05:27:12.451Z,94862.00
2023-04-26T05:28:12.598Z,94862.00
2023-04-26T05:29:13.249Z,94864.00
2023-04-26T05:30:12.614Z,94862.00
2023-04-26T05:31:12.718Z,94864.00
2023-04-26T05:32:12.845Z,94865.00
2023-04-26T05:33:12.839Z,94865.00
2023-04-26T05:34:12.836Z,94865.00
2023-04-26T05:35:12.883Z,94867.00
2023-04-26T05:36:12.938Z,94867.00
2023-04-26T05:37:13.025Z,94867.00
2023-04-26T05:38:13.060Z,94875.00
2023-04-26T05:39:13.082Z,94869.00
2023-04-26T05:40:13.217Z,94871.00
2023-04-26T05:41:13.219Z,94875.00
2023-04-26T05:42:13.499Z,94871.00
2023-04-26T05:43:13.284Z,94873.00
2023-04-26T05:44:13.316Z,94871.00
2023-04-26T05:45:13.747Z,94875.00
2023-04-26T05:46:13.530Z,94873.00
2023-04-26T05:47:13.486Z,94873.00
2023-04-26T05:48:13.611Z,94873.00
2023-04-26T05:49:13.589Z,94873.00
2023-04-26T05:50:13.640Z,94871.00
2023-04-26T05:51:13.698Z,94873.00
2023-04-26T05:52:13.714Z,94875.00
2023-04-26T05:53:13.799Z,94875.00
2023-04-26T05:54:13.820Z,94873.00
2023-04-26T05:55:14.236Z,94877.00
2023-04-26T05:56:13.995Z,94879.00
2023-04-26T05:57:14.086Z,94877.00
2023-04-26T05:58:14.026Z,94875.00
2023-04-26T05:59:14.067Z,94879.00
2023-04-26T06:00:14.278Z,94887.00
2023-04-26T06:01:14.157Z,94887.00
2023-04-26T06:02:14.324Z,94887.00
2023-04-26T06:03:14.520Z,94889.00
2023-04-26T06:04:14.568Z,94889.00
2023-04-26T06:05:14.533Z,94891.00
2023-04-26T06:06:14.345Z,94889.00
2023-04-26T06:07:14.391Z,94897.00
2023-04-26T06:08:14.402Z,94893.00
2023-04-26T06:09:14.432Z,94895.00
2023-04-26T06:10:14.741Z,94893.00
2023-04-26T06:11:14.490Z,94893.00
2023-04-26T06:12:14.556Z,94893.00
2023-04-26T06:13:14.561Z,94889.00
2023-04-26T06:14:23.502Z,94891.00
2023-04-26T06:15:15.546Z,94889.00
2023-04-26T06:16:14.596Z,94889.00
2023-04-26T06:17:14.517Z,94893.00
2023-04-26T06:18:14.560Z,94893.00
2023-04-26T06:19:14.475Z,94895.00
2023-04-26T06:20:14.725Z,94893.00
2023-04-26T06:21:14.490Z,94889.00
2023-04-26T06:22:14.485Z,94893.00
2023-04-26T06:23:14.461Z,94895.00
2023-04-26T06:24:14.473Z,94893.00
2023-04-26T06:25:14.810Z,94895.00
2023-04-26T06:26:14.448Z,94893.00
2023-04-26T06:27:14.496Z,94893.00
2023-04-26T06:28:14.437Z,94893.00
2023-04-26T06:29:14.448Z,94891.00
2023-04-26T06:30:14.448Z,94891.00
2023-04-26T06:31:14.438Z,94897.00
2023-04-26T06:32:14.451Z,94895.00
2023-04-26T06:33:14.399Z,94897.00
2023-04-26T06:34:14.561Z,94895.00
2023-04-26T06:35:14.449Z,94897.00
2023-04-26T06:36:14.502Z,94899.00
2023-04-26T06:37:14.576Z,94899.00
2023-04-26T06:38:14.625Z,94901.00
2023-04-26T06:39:14.630Z,94901.00
2023-04-26T06:40:14.720Z,94901.00
2023-04-26T06:41:14.764Z,94901.00
2023-04-26T06:42:14.822Z,94901.00
2023-04-26T06:43:14.928Z,94901.00
2023-04-26T06:44:15.751Z,94899.00
2023-04-26T06:45:15.033Z,94901.00
2023-04-26T06:46:15.102Z,94901.00
2023-04-26T06:47:15.146Z,94901.00
2023-04-26T06:48:15.252Z,94901.00
2023-04-26T06:49:15.284Z,94905.00
2023-04-26T06:50:15.299Z,94905.00
2023-04-26T06:51:15.373Z,94903.00
2023-04-26T06:52:15.459Z,94903.00
2023-04-26T06:53:15.497Z,94899.00
2023-04-26T06:54:15.549Z,94905.00
2023-04-26T06:55:15.751Z,94899.00
2023-04-26T06:56:15.664Z,94903.00
2023-04-26T06:57:15.682Z,94901.00
2023-04-26T06:58:15.770Z,94901.00
2023-04-26T06:59:15.796Z,94901.00
2023-04-26T07:00:16.260Z,94903.00
2023-04-26T07:01:15.951Z,94903.00
2023-04-26T07:02:16.187Z,94901.00
2023-04-26T07:03:16.251Z,94899.00
2023-04-26T07:04:16.226Z,94895.00
2023-04-26T07:05:16.348Z,94895.00
2023-04-26T07:06:16.205Z,94893.00
2023-04-26T07:07:16.342Z,94893.00
2023-04-26T07:08:16.247Z,94893.00
2023-04-26T07:09:16.329Z,94893.00
2023-04-26T07:10:16.792Z,94893.00
2023-04-26T07:11:16.326Z,94893.00
2023-04-26T07:12:16.302Z,94891.00
2023-04-26T07:13:16.353Z,94891.00
2023-04-26T07:14:16.323Z,94893.00
2023-04-26T07:15:16.383Z,94893.00
2023-04-26T07:16:17.385Z,94895.00
2023-04-26T07:17:16.334Z,94899.00
2023-04-26T07:18:16.400Z,94895.00
2023-04-26T07:19:16.400Z,94899.00
2023-04-26T07:20:16.758Z,94893.00
2023-04-26T07:21:16.426Z,94895.00
2023-04-26T07:22:16.347Z,94893.00
2023-04-26T07:23:16.344Z,94891.00
2023-04-26T07:24:16.375Z,94891.00
2023-04-26T07:25:16.763Z,94887.00
2023-04-26T07:26:16.374Z,94893.00
2023-04-26T07:27:16.384Z,94887.00
2023-04-26T07:28:16.350Z,94887.00
2023-04-26T07:29:16.406Z,94879.00
2023-04-26T07:30:17.287Z,94887.00
2023-04-26T07:31:16.371Z,94891.00
2023-04-26T07:32:16.344Z,94889.00
2023-04-26T07:33:16.421Z,94879.00
2023-04-26T07:34:16.387Z,94889.00
2023-04-26T07:35:16.783Z,94889.00
2023-04-26T07:36:16.366Z,94891.00
2023-04-26T07:37:16.364Z,94893.00
2023-04-26T07:38:16.349Z,94891.00
2023-04-26T07:39:16.388Z,94887.00
2023-04-26T07:40:16.429Z,94887.00
2023-04-26T07:41:16.380Z,94887.00
2023-04-26T07:42:16.362Z,94877.00
2023-04-26T07:43:16.384Z,94879.00
2023-04-26T07:44:16.393Z,94875.00
2023-04-26T07:45:16.399Z,94873.00
2023-04-26T07:46:16.494Z,94873.00
2023-04-26T07:47:16.393Z,94875.00
2023-04-26T07:48:16.451Z,94875.00
2023-04-26T07:49:16.461Z,94871.00
2023-04-26T07:50:16.456Z,94871.00
2023-04-26T07:51:16.456Z,94875.00
2023-04-26T07:52:16.503Z,94873.00
2023-04-26T07:53:16.534Z,94879.00
2023-04-26T07:54:16.585Z,94873.00
2023-04-26T07:55:17.818Z,94879.00
2023-04-26T07:56:16.608Z,94879.00
2023-04-26T07:57:16.639Z,94879.00
2023-04-26T07:58:16.675Z,94879.00
2023-04-26T07:59:16.701Z,94875.00
2023-04-26T08:00:16.759Z,94877.00
2023-04-26T08:01:17.130Z,94875.00
2023-04-26T08:02:16.976Z,94871.00
2023-04-26T08:03:16.997Z,94877.00
2023-04-26T08:04:17.118Z,94871.00
2023-04-26T08:05:17.202Z,94873.00
2023-04-26T08:06:17.258Z,94875.00
2023-04-26T08:07:17.083Z,94875.00
2023-04-26T08:08:18.854Z,94877.00
2023-04-26T08:09:17.182Z,94875.00
2023-04-26T08:10:17.309Z,94877.00
2023-04-26T08:11:17.205Z,94879.00
2023-04-26T08:12:17.267Z,94879.00
2023-04-26T08:13:17.360Z,94875.00
2023-04-26T08:14:17.371Z,94879.00
2023-04-26T08:15:17.799Z,94871.00
2023-04-26T08:16:17.460Z,94871.00
2023-04-26T08:17:17.458Z,94869.00
2023-04-26T08:18:17.460Z,94865.00
2023-04-26T08:19:17.498Z,94867.00
2023-04-26T08:20:17.838Z,94865.00
2023-04-26T08:21:17.545Z,94864.00
2023-04-26T08:22:17.572Z,94862.00
2023-04-26T08:23:17.566Z,94864.00
2023-04-26T08:24:17.583Z,94864.00
2023-04-26T08:25:17.792Z,94862.00
2023-04-26T08:26:17.585Z,94862.00
2023-04-26T08:27:17.595Z,94858.00
2023-04-26T08:28:17.610Z,94856.00
2023-04-26T08:29:17.622Z,94858.00
2023-04-26T08:30:17.619Z,94856.00
2023-04-26T08:31:17.877Z,94854.00
2023-04-26T08:32:17.628Z,94856.00
2023-04-26T08:33:17.647Z,94852.00
2023-04-26T08:34:17.668Z,94852.00
2023-04-26T08:35:17.647Z,94854.00
2023-04-26T08:36:17.825Z,94850.00
2023-04-26T08:37:17.671Z,94850.00
2023-04-26T08:38:17.668Z,94852.00
2023-04-26T08:39:17.688Z,94854.00
2023-04-26T08:40:17.703Z,94850.00
2023-04-26T08:41:17.796Z,94852.00
2023-04-26T08:42:17.737Z,94850.00
2023-04-26T08:43:17.729Z,94850.00
2023-04-26T08:44:17.714Z,94848.00
2023-04-26T08:45:17.734Z,94846.00
2023-04-26T08:46:17.775Z,94842.00
2023-04-26T08:47:17.806Z,94838.00
2023-04-26T08:48:17.982Z,94838.00
2023-04-26T08:49:17.782Z,94836.00
2023-04-26T08:50:17.836Z,94836.00
2023-04-26T08:51:18.344Z,94838.00
2023-04-26T08:52:17.833Z,94838.00
2023-04-26T08:53:17.953Z,94834.00
2023-04-26T08:54:17.849Z,94836.00
2023-04-26T08:55:17.875Z,94832.00
2023-04-26T08:56:18.311Z,94832.00
2023-04-26T08:57:17.906Z,94830.00
2023-04-26T08:58:17.917Z,94830.00
2023-04-26T08:59:17.955Z,94832.00
2023-04-26T09:00:17.950Z,94832.00
2023-04-26T09:01:18.386Z,94832.00
2023-04-26T09:02:18.926Z,94826.00
2023-04-26T09:03:18.200Z,94828.00
2023-04-26T09:04:18.190Z,94828.00
2023-04-26T09:05:18.098Z,94826.00
2023-04-26T09:06:18.344Z,94824.00
2023-04-26T09:07:18.002Z,94822.00
2023-04-26T09:08:17.996Z,94826.00
2023-04-26T09:09:18.002Z,94820.00
2023-04-26T09:10:18.049Z,94826.00
2023-04-26T09:11:18.363Z,94826.00
2023-04-26T09:12:18.077Z,94824.00
2023-04-26T09:13:19.037Z,94822.00
2023-04-26T09:14:18.090Z,94820.00
2023-04-26T09:15:18.022Z,94824.00
2023-04-26T09:16:18.099Z,94824.00
2023-04-26T09:17:17.998Z,94818.00
2023-04-26T09:18:18.009Z,94815.00
2023-04-26T09:19:18.016Z,94815.00
2023-04-26T09:20:18.018Z,94815.00
2023-04-26T09:21:18.314Z,94815.00
2023-04-26T09:22:17.990Z,94811.00
2023-04-26T09:23:17.955Z,94809.00
2023-04-26T09:24:17.971Z,94805.00
2023-04-26T09:25:18.006Z,94807.00
2023-04-26T09:26:18.380Z,94805.00
2023-04-26T09:27:17.926Z,94805.00
2023-04-26T09:28:17.911Z,94807.00
2023-04-26T09:29:17.972Z,94803.00
2023-04-26T09:30:17.937Z,94805.00
2023-04-26T09:31:18.398Z,94801.00
2023-04-26T09:32:17.907Z,94803.00
2023-04-26T09:33:18.037Z,94801.00
2023-04-26T09:34:17.941Z,94803.00
2023-04-26T09:35:17.898Z,94797.00
2023-04-26T09:36:18.317Z,94791.00
2023-04-26T09:37:17.864Z,94791.00
2023-04-26T09:38:17.876Z,94793.00
2023-04-26T09:39:17.870Z,94793.00
2023-04-26T09:40:17.888Z,94789.00
2023-04-26T09:41:17.859Z,94789.00
2023-04-26T09:42:17.817Z,94789.00
2023-04-26T09:43:17.833Z,94791.00
2023-04-26T09:44:17.880Z,94787.00
2023-04-26T09:45:17.834Z,94789.00
2023-04-26T09:46:17.861Z,94787.00
2023-04-26T09:47:17.813Z,94789.00
2023-04-26T09:48:17.827Z,94791.00
2023-04-26T09:49:17.812Z,94785.00
2023-04-26T09:50:17.799Z,94781.00
2023-04-26T09:51:17.864Z,94779.00
2023-04-26T09:52:17.796Z,94777.00
2023-04-26T09:53:17.822Z,94777.00
2023-04-26T09:54:17.843Z,94781.00
2023-04-26T09:55:31.201Z,94775.00
2023-04-26T09:56:18.914Z,94777.00
2023-04-26T09:57:17.818Z,94775.00
2023-04-26T09:58:17.803Z,94775.00
2023-04-26T09:59:17.816Z,94773.00
2023-04-26T10:00:17.793Z,94773.00
2023-04-26T10:01:18.021Z,94773.00
2023-04-26T10:02:17.830Z,94769.00
2023-04-26T10:03:17.897Z,94769.00
2023-04-26T10:04:17.857Z,94766.00
2023-04-26T10:05:17.758Z,94769.00
2023-04-26T10:06:17.837Z,94762.00
2023-04-26T10:07:17.716Z,94766.00
2023-04-26T10:08:17.707Z,94764.00
2023-04-26T10:09:17.723Z,94762.00
2023-04-26T10:10:17.785Z,94764.00
2023-04-26T10:11:17.846Z,94764.00
2023-04-26T10:12:17.690Z,94762.00
2023-04-26T10:13:17.689Z,94764.00
2023-04-26T10:14:17.713Z,94760.00
2023-04-26T10:15:17.707Z,94756.00
2023-04-26T10:16:17.972Z,94758.00
2023-04-26T10:17:17.687Z,94754.00
2023-04-26T10:18:17.828Z,94756.00
2023-04-26T10:19:17.742Z,94756.00
2023-04-26T10:20:17.799Z,94752.00
2023-04-26T10:21:17.861Z,94752.00
2023-04-26T10:22:17.857Z,94746.00
2023-04-26T10:23:17.939Z,94750.00
2023-04-26T10:24:17.974Z,94750.00
2023-04-26T10:25:17.939Z,94746.00
2023-04-26T10:26:18.391Z,94742.00
2023-04-26T10:27:17.957Z,94744.00
2023-04-26T10:28:17.960Z,94744.00
2023-04-26T10:29:18.056Z,94744.00
2023-04-26T10:30:18.230Z,94744.00
2023-04-26T10:31:18.419Z,94744.00
2023-04-26T10:32:18.239Z,94740.00
2023-04-26T10:33:18.246Z,94740.00
2023-04-26T10:34:18.295Z,94738.00
2023-04-26T10:35:18.326Z,94734.00
2023-04-26T10:36:18.867Z,94732.00
2023-04-26T10:37:18.456Z,94730.00
2023-04-26T10:38:18.476Z,94734.00
2023-04-26T10:39:18.563Z,94734.00
2023-04-26T10:40:18.590Z,94730.00
2023-04-26T10:41:18.879Z,94728.00
2023-04-26T10:42:18.615Z,94728.00
2023-04-26T10:43:18.644Z,94728.00
2023-04-26T10:44:18.726Z,94726.00
2023-04-26T10:45:18.749Z,94724.00
2023-04-26T10:46:18.881Z,94726.00
2023-04-26T10:47:18.772Z,94724.00
2023-04-26T10:48:18.885Z,94722.00
2023-04-26T10:49:18.840Z,94720.00
2023-04-26T10:50:18.832Z,94718.00
2023-04-26T10:51:18.883Z,94713.00
2023-04-26T10:52:18.880Z,94711.00
2023-04-26T10:53:18.983Z,94711.00
2023-04-26T10:54:18.979Z,94709.00
2023-04-26T10:55:19.006Z,94709.00
2023-04-26T10:56:19.348Z,94701.00
2023-04-26T10:57:19.142Z,94703.00
2023-04-26T10:58:19.146Z,94701.00
2023-04-26T10:59:36.054Z,94703.00
2023-04-26T11:00:20.227Z,94703.00
2023-04-26T11:01:19.297Z,94697.00
2023-04-26T11:02:19.234Z,94703.00
2023-04-26T11:03:19.502Z,94699.00
2023-04-26T11:04:19.374Z,94701.00
2023-04-26T11:05:19.205Z,94697.00
2023-04-26T11:06:19.384Z,94699.00
2023-04-26T11:07:19.182Z,94697.00
2023-04-26T11:08:19.236Z,94689.00
2023-04-26T11:09:19.168Z,94689.00
2023-04-26T11:10:19.226Z,94685.00
2023-04-26T11:11:19.380Z,94687.00
2023-04-26T11:12:19.351Z,94685.00
2023-04-26T11:13:19.406Z,94683.00
2023-04-26T11:14:19.418Z,94681.00
2023-04-26T11:15:19.480Z,94679.00
2023-04-26T11:16:19.924Z,94677.00
2023-04-26T11:17:19.517Z,94679.00
2023-04-26T11:18:19.572Z,94681.00
2023-04-26T11:19:19.608Z,94679.00
2023-04-26T11:20:19.683Z,94679.00
2023-04-26T11:21:19.675Z,94677.00
2023-04-26T11:22:19.685Z,94673.00
2023-04-26T11:23:19.737Z,94669.00
2023-04-26T11:24:19.726Z,94673.00
2023-04-26T11:25:19.795Z,94668.00
2023-04-26T11:26:19.910Z,94668.00
2023-04-26T11:27:19.920Z,94662.00
2023-04-26T11:28:19.962Z,94660.00
2023-04-26T11:29:19.959Z,94662.00
2023-04-26T11:30:20.042Z,94656.00
2023-04-26T11:31:20.419Z,94656.00
2023-04-26T11:32:20.129Z,94656.00
2023-04-26T11:33:20.226Z,94650.00
2023-04-26T11:34:20.253Z,94650.00
2023-04-26T11:35:20.277Z,94652.00
2023-04-26T11:36:20.987Z,94650.00
2023-04-26T11:37:20.430Z,94650.00
2023-04-26T11:38:20.431Z,94648.00
2023-04-26T11:39:20.422Z,94646.00
2023-04-26T11:40:20.440Z,94648.00
2023-04-26T11:41:20.906Z,94646.00
2023-04-26T11:42:20.476Z,94646.00
2023-04-26T11:43:20.550Z,94646.00
2023-04-26T11:44:20.546Z,94652.00